Time;durP1;ratioP1;P1;durP2;ratioP2;P2;SDS_P1;SDS_P2;PMS_P1;PMS_P2;Temp;Humidity;BMP_temperature;BMP_pressure;BME280_temperature;BME280_humidity;BME280_pressure;Samples;Min_cycle;Max_cycle;Signal;HPM_P1;HPM_P2
2021/08/31 00:01:12;;;;;;;24.13;19.17;;;;;;;12.45;99.46;95915.13;6195498;23;20304;-80
2021/08/31 00:03:38;;;;;;;23.83;18.53;;;;;;;12.47;99.45;95913.22;6170749;23;20154;-80
2021/08/31 00:06:03;;;;;;;27.03;19.83;;;;;;;12.46;99.58;95908.97;6170465;23;20169;-80
2021/08/31 00:08:28;;;;;;;24.23;19.17;;;;;;;12.46;99.56;95913.38;6170436;23;20516;-80
2021/08/31 00:10:54;;;;;;;23.10;17.97;;;;;;;12.50;99.14;95919.91;6196201;23;20180;-79
2021/08/31 00:13:19;;;;;;;24.57;19.63;;;;;;;12.47;99.20;95915.00;6170579;23;20201;-81
2021/08/31 00:15:44;;;;;;;27.80;20.23;;;;;;;12.47;99.23;95915.00;6170802;23;20620;-80
2021/08/31 00:18:10;;;;;;;27.20;19.40;;;;;;;12.47;99.27;95915.00;6223324;23;20174;-81
2021/08/31 00:20:35;;;;;;;26.80;20.60;;;;;;;12.47;99.29;95920.22;6170045;23;20162;-81
2021/08/31 00:23:00;;;;;;;23.43;19.53;;;;;;;12.49;99.34;95918.25;6170452;23;20154;-80
2021/08/31 00:25:26;;;;;;;25.00;19.27;;;;;;;12.51;99.26;95921.53;6172217;23;20474;-80
2021/08/31 00:27:51;;;;;;;22.77;19.10;;;;;;;12.51;99.15;95918.09;6172164;23;20174;-80
2021/08/31 00:30:17;;;;;;;23.57;19.30;;;;;;;12.53;99.16;95916.97;6197746;23;20204;-80
2021/08/31 00:32:43;;;;;;;23.83;20.07;;;;;;;12.50;99.22;95919.91;6142836;23;20189;-80
2021/08/31 00:35:08;;;;;;;25.33;19.53;;;;;;;12.52;98.90;95919.75;6144250;23;20154;-81
2021/08/31 00:37:34;;;;;;;22.67;19.70;;;;;;;12.54;99.15;95915.19;6168338;23;20163;-79
2021/08/31 00:39:59;;;;;;;28.33;20.27;;;;;;;12.50;99.12;95922.50;6141005;23;20159;-80
2021/08/31 00:42:24;;;;;;;27.50;21.37;;;;;;;12.51;99.14;95920.72;6164975;23;20177;-79
2021/08/31 00:44:50;;;;;;;24.47;20.07;;;;;;;12.48;99.35;95916.63;6164358;23;20283;-81
2021/08/31 00:47:15;;;;;;;29.17;20.43;;;;;;;12.47;99.57;95918.41;6140796;23;20221;-81
2021/08/31 00:49:40;;;;;;;28.23;20.37;;;;;;;12.48;99.28;95921.84;6165972;23;20182;-82
2021/08/31 00:52:06;;;;;;;27.63;20.87;;;;;;;12.50;99.47;95922.50;6164180;23;20166;-80
2021/08/31 00:54:31;;;;;;;29.80;20.60;;;;;;;12.45;99.72;95922.13;6163807;23;20158;-79
2021/08/31 00:57:01;;;;;;;28.23;21.70;;;;;;;12.46;99.40;95924.59;6139600;23;20151;-80
2021/08/31 00:59:27;;;;;;;29.23;22.23;;;;;;;12.46;99.64;95927.19;6165884;23;20174;-81
2021/08/31 01:01:56;;;;;;;30.73;22.70;;;;;;;12.42;99.99;95925.03;6164573;23;20238;-80
2021/08/31 01:04:26;;;;;;;31.63;22.63;;;;;;;12.43;100.00;95937.91;6140644;23;20155;-80
2021/08/31 01:06:53;;;;;;;28.57;21.10;;;;;;;12.41;99.96;95932.03;6165862;23;20159;-79
2021/08/31 01:09:22;;;;;;;29.20;21.33;;;;;;;12.42;100.00;95923.25;6192341;23;20240;-80
2021/08/31 01:11:48;;;;;;;31.70;22.80;;;;;;;12.37;100.00;95925.50;6164531;23;20215;-81
2021/08/31 01:14:15;;;;;;;30.03;22.83;;;;;;;12.36;100.00;95923.84;6165287;23;20167;-79
2021/08/31 01:16:40;;;;;;;32.77;22.23;;;;;;;12.33;100.00;95920.72;6166290;23;20150;-80
2021/08/31 01:19:05;;;;;;;33.40;22.20;;;;;;;12.39;100.00;95925.34;6164681;23;20201;-81
2021/08/31 01:21:31;;;;;;;28.33;22.70;;;;;;;12.31;100.00;95917.44;6165598;23;20161;-80
2021/08/31 01:23:57;;;;;;;30.50;22.87;;;;;;;12.31;100.00;95922.66;6162701;23;20151;-79
2021/08/31 01:26:23;;;;;;;33.97;22.13;;;;;;;12.35;100.00;95921.38;6162927;23;20150;-80
2021/08/31 01:28:48;;;;;;;27.93;21.13;;;;;;;12.37;100.00;95915.06;6162970;23;20175;-81
2021/08/31 01:31:13;;;;;;;31.53;24.80;;;;;;;12.32;100.00;95921.69;6163592;23;20154;-80
2021/08/31 01:33:39;;;;;;;37.33;25.60;;;;;;;12.26;100.00;95924.88;6139393;23;20179;-79
2021/08/31 01:36:21;;;;;;;31.17;23.83;;;;;;;12.29;100.00;95927.22;6164691;23;20551;-79
2021/08/31 01:38:52;;;;;;;34.43;23.30;;;;;;;12.29;100.00;95922.81;6139725;23;20175;-80
2021/08/31 01:41:18;;;;;;;32.83;23.43;;;;;;;12.30;100.00;95934.06;6139743;23;20484;-80
2021/08/31 01:43:44;;;;;;;34.73;25.30;;;;;;;12.32;100.00;95942.53;6139469;23;20150;-80
2021/08/31 01:46:09;;;;;;;35.40;24.87;;;;;;;12.28;100.00;95935.97;6161884;23;20593;-80
2021/08/31 01:48:35;;;;;;;34.20;24.77;;;;;;;12.28;100.00;95939.41;6162024;23;20254;-80
2021/08/31 01:51:00;;;;;;;36.00;24.80;;;;;;;12.30;100.00;95931.44;6162132;23;20166;-79
2021/08/31 01:53:25;;;;;;;41.93;27.83;;;;;;;12.21;100.00;95924.53;6160916;23;20570;-79
2021/08/31 01:55:51;;;;;;;36.70;27.87;;;;;;;12.21;100.00;95933.16;6139575;23;20166;-80
2021/08/31 01:58:16;;;;;;;41.17;26.23;;;;;;;12.23;100.00;95939.03;6163354;23;20194;-80
2021/08/31 02:00:42;;;;;;;44.47;28.13;;;;;;;12.24;100.00;95934.63;6164468;23;20151;-81
2021/08/31 02:03:07;;;;;;;40.00;27.93;;;;;;;12.18;100.00;95936.03;6138930;23;20178;-79
2021/08/31 02:05:32;;;;;;;37.33;26.87;;;;;;;12.19;100.00;95938.50;6140245;23;20605;-80
2021/08/31 02:07:57;;;;;;;41.87;26.87;;;;;;;12.21;100.00;95934.94;6163909;23;20695;-79
2021/08/31 02:10:23;;;;;;;42.63;27.40;;;;;;;12.22;100.00;95940.00;6164506;23;20716;-81
2021/08/31 02:12:48;;;;;;;38.43;27.00;;;;;;;12.24;100.00;95937.25;6163347;23;20551;-80
2021/08/31 02:15:14;;;;;;;41.80;27.23;;;;;;;12.24;100.00;95929.44;6139989;23;20167;-79
2021/08/31 02:17:39;;;;;;;44.57;28.93;;;;;;;12.25;100.00;95941.47;6164012;23;20488;-81
2021/08/31 02:20:06;;;;;;;40.67;27.10;;;;;;;12.24;100.00;95939.84;6139855;23;20251;-78
2021/08/31 02:22:31;;;;;;;46.97;30.37;;;;;;;12.16;100.00;95938.78;6139037;23;20151;-81
2021/08/31 02:24:56;;;;;;;43.07;28.63;;;;;;;12.24;100.00;95939.84;6140279;23;20220;-79
2021/08/31 02:27:22;;;;;;;42.27;28.37;;;;;;;12.22;100.00;95947.00;6164957;23;20151;-80
2021/08/31 02:29:47;;;;;;;45.27;28.73;;;;;;;12.23;100.00;95946.03;6140055;23;20166;-80
2021/08/31 02:32:12;;;;;;;41.43;27.20;;;;;;;12.23;100.00;95944.22;6164367;23;20706;-80
2021/08/31 02:34:38;;;;;;;42.80;28.93;;;;;;;12.24;100.00;95940.66;6163249;23;20540;-81
2021/08/31 02:37:03;;;;;;;41.47;27.77;;;;;;;12.23;100.00;95948.63;6164585;23;20221;-82
2021/08/31 02:39:28;;;;;;;45.87;30.53;;;;;;;12.25;100.00;95951.88;6164330;23;20198;-80
2021/08/31 02:41:53;;;;;;;40.87;28.23;;;;;;;12.27;100.00;95949.94;6139465;23;20163;-81
2021/08/31 02:44:19;;;;;;;48.90;32.30;;;;;;;12.25;100.00;95952.72;6138663;23;20185;-80
2021/08/31 02:46:44;;;;;;;52.27;33.70;;;;;;;12.24;100.00;95948.47;6137991;23;20516;-80
2021/08/31 02:49:09;;;;;;;48.63;32.80;;;;;;;12.25;100.00;95946.69;6162233;23;20636;-81
2021/08/31 02:51:35;;;;;;;51.07;33.07;;;;;;;12.32;100.00;95940.75;6161297;23;20143;-79
2021/08/31 02:54:00;;;;;;;48.63;32.47;;;;;;;12.27;100.00;95945.56;6136589;23;20167;-80
2021/08/31 02:56:25;;;;;;;51.13;32.23;;;;;;;12.24;100.00;95953.69;6162644;23;20222;-80
2021/08/31 02:58:51;;;;;;;44.37;30.53;;;;;;;12.28;100.00;95943.78;6138491;23;20521;-80
2021/08/31 03:01:39;;;;;;;44.50;31.77;;;;;;;12.26;100.00;95945.72;6137688;23;20161;-81
2021/08/31 03:04:03;;;;;;;45.30;30.50;;;;;;;12.25;100.00;95939.69;6166096;23;20495;-80
2021/08/31 03:06:29;;;;;;;47.40;31.93;;;;;;;12.23;100.00;95939.03;6161880;23;20191;-80
2021/08/31 03:08:54;;;;;;;48.40;31.83;;;;;;;12.19;100.00;95943.72;6162309;23;20178;-80
2021/08/31 03:11:27;;;;;;;47.27;32.00;;;;;;;12.17;100.00;95945.63;6162511;23;20210;-81
2021/08/31 03:13:52;;;;;;;46.57;30.60;;;;;;;12.19;100.00;95946.31;6138372;23;20698;-80
2021/08/31 03:16:18;;;;;;;49.90;33.93;;;;;;;12.25;100.00;95942.28;6137792;23;20155;-79
2021/08/31 03:18:43;;;;;;;49.47;33.73;;;;;;;12.23;100.00;95948.63;6137807;23;20233;-80
2021/08/31 03:21:09;;;;;;;46.63;32.43;;;;;;;12.24;100.00;95955.47;6138244;23;20182;-78
2021/08/31 03:23:34;;;;;;;50.27;34.20;;;;;;;12.21;100.00;95956.59;6166615;23;20209;-80
2021/08/31 03:25:59;;;;;;;50.70;34.33;;;;;;;12.16;100.00;95962.22;6145605;23;20190;-81
2021/08/31 03:28:25;;;;;;;51.67;33.37;;;;;;;12.17;100.00;95958.66;6198032;23;20257;-81
2021/08/31 03:30:50;;;;;;;50.53;33.87;;;;;;;12.21;100.00;95960.97;6164662;23;20154;-80
2021/08/31 03:33:16;;;;;;;53.50;35.10;;;;;;;12.15;100.00;95963.19;6138795;23;20178;-79
2021/08/31 03:35:41;;;;;;;52.80;33.87;;;;;;;12.14;100.00;95963.34;6164126;23;20151;-78
2021/08/31 03:38:06;;;;;;;46.67;32.47;;;;;;;12.16;100.00;95962.22;6163433;23;20170;-79
2021/08/31 03:40:32;;;;;;;48.97;33.63;;;;;;;12.16;100.00;95966.59;6139317;23;20182;-79
2021/08/31 03:42:57;;;;;;;43.53;32.17;;;;;;;12.15;100.00;95968.41;6163632;23;20166;-81
2021/08/31 03:45:22;;;;;;;46.53;31.17;;;;;;;12.16;100.00;95964.81;6164689;23;20151;-81
2021/08/31 03:47:48;;;;;;;51.73;33.60;;;;;;;12.13;100.00;95972.13;6142513;23;20680;-80
2021/08/31 03:50:13;;;;;;;50.73;33.27;;;;;;;12.12;100.00;95967.88;6199570;23;20167;-81
2021/08/31 03:52:38;;;;;;;48.87;33.80;;;;;;;12.14;100.00;95977.19;6149212;23;20179;-81
2021/08/31 03:55:04;;;;;;;46.70;33.53;;;;;;;12.13;100.00;95977.31;6146315;23;20246;-80
2021/08/31 03:57:29;;;;;;;45.30;31.70;;;;;;;12.07;100.00;95977.91;6147268;23;20159;-81
2021/08/31 03:59:54;;;;;;;49.40;33.27;;;;;;;12.07;100.00;95978.72;6199612;23;20187;-80
2021/08/31 04:02:21;;;;;;;41.47;30.43;;;;;;;12.12;100.00;95979.13;6163788;23;20151;-80
2021/08/31 04:04:47;;;;;;;48.63;33.77;;;;;;;12.09;100.00;95982.00;6189405;23;20155;-80
2021/08/31 04:07:12;;;;;;;49.10;32.97;;;;;;;12.09;100.00;95978.56;6140519;23;20189;-79
2021/08/31 04:09:38;;;;;;;51.07;32.10;;;;;;;12.04;100.00;95975.59;6138707;23;20185;-81
2021/08/31 04:12:03;;;;;;;45.03;32.23;;;;;;;12.05;100.00;95975.44;6145576;23;20178;-80
2021/08/31 04:14:29;;;;;;;41.30;29.03;;;;;;;12.07;100.00;95985.72;6178139;23;20158;-80
2021/08/31 04:16:54;;;;;;;42.43;31.23;;;;;;;12.01;100.00;95987.09;6150643;23;20158;-82
2021/08/31 04:19:19;;;;;;;46.03;30.80;;;;;;;12.03;100.00;95984.38;6151366;23;20202;-80
2021/08/31 04:21:47;;;;;;;43.77;30.77;;;;;;;12.04;100.00;95986.00;6154387;23;20246;-80
2021/08/31 04:24:13;;;;;;;43.40;31.20;;;;;;;12.07;100.00;95989.13;6155225;23;20170;-80
2021/08/31 04:26:38;;;;;;;44.47;31.27;;;;;;;12.06;100.00;95984.91;6152278;23;20184;-81
2021/08/31 04:29:03;;;;;;;47.50;31.03;;;;;;;12.07;100.00;95989.13;6177879;23;20174;-80
2021/08/31 04:31:29;;;;;;;46.20;29.83;;;;;;;12.04;100.00;95994.63;6175211;23;20552;-80
2021/08/31 04:33:54;;;;;;;39.97;29.47;;;;;;;12.02;100.00;95999.19;6204276;23;20198;-81
2021/08/31 04:36:19;;;;;;;44.83;30.73;;;;;;;12.00;100.00;95995.88;6151396;23;20158;-79
2021/08/31 04:38:45;;;;;;;40.77;29.17;;;;;;;11.99;100.00;95996.84;6178475;23;20201;-80
2021/08/31 04:41:11;;;;;;;40.00;30.00;;;;;;;11.95;100.00;95997.28;6140316;23;20154;-78
2021/08/31 04:43:36;;;;;;;38.27;28.23;;;;;;;11.96;100.00;95999.75;6161500;23;20166;-79
2021/08/31 04:46:02;;;;;;;36.70;26.47;;;;;;;11.97;100.00;96003.16;6140507;23;20230;-79
2021/08/31 04:48:27;;;;;;;37.43;27.33;;;;;;;11.97;100.00;96000.56;6168266;23;20656;-79
2021/08/31 04:50:53;;;;;;;39.27;28.30;;;;;;;12.01;100.00;95994.91;6153036;23;20194;-80
2021/08/31 04:53:20;;;;;;;40.37;27.43;;;;;;;11.96;100.00;95999.75;6148020;23;20659;-79
2021/08/31 04:55:45;;;;;;;40.80;28.77;;;;;;;11.97;100.00;95996.19;6174164;23;20155;-80
2021/08/31 04:58:10;;;;;;;40.53;27.40;;;;;;;11.99;100.00;95989.03;6174917;23;20234;-78
2021/08/31 05:00:36;;;;;;;35.60;27.27;;;;;;;12.05;100.00;95993.66;6203015;23;20163;-79
2021/08/31 05:03:01;;;;;;;40.33;29.03;;;;;;;12.05;100.00;95988.47;6149933;23;20213;-81
2021/08/31 05:05:34;;;;;;;40.53;27.33;;;;;;;12.00;100.00;96000.28;6193976;23;20151;-81
2021/08/31 05:08:17;;;;;;;44.03;28.67;;;;;;;11.93;100.00;95991.41;6146586;23;20266;-83
2021/08/31 05:14:15;;;;;;;36.43;26.80;;;;;;;11.96;100.00;96009.34;6189822;23;20177;-81
2021/08/31 05:16:42;;;;;;;36.07;27.63;;;;;;;12.02;100.00;96008.78;6148561;23;20161;-80
2021/08/31 05:19:07;;;;;;;34.83;26.37;;;;;;;11.99;100.00;96019.47;6170469;23;20204;-80
2021/08/31 05:21:35;;;;;;;36.60;25.13;;;;;;;11.91;100.00;96012.38;6169826;23;20158;-82
2021/08/31 05:24:46;;;;;;;32.77;24.37;;;;;;;11.91;100.00;96015.78;6147872;23;20151;-81
2021/08/31 05:27:48;;;;;;;32.23;24.23;;;;;;;11.89;100.00;96019.50;6148229;23;20495;-82
2021/08/31 05:33:39;;;;;;;35.10;24.23;;;;;;;11.94;100.00;96025.09;6054949;23;20253;-82
2021/08/31 05:37:02;;;;;;;35.77;24.23;;;;;;;11.84;100.00;96029.53;6110917;23;20238;-82
2021/08/31 05:39:33;;;;;;;35.00;25.47;;;;;;;11.75;100.00;96033.78;6023898;23;20216;-81
2021/08/31 05:42:01;;;;;;;35.00;24.80;;;;;;;11.82;100.00;96044.47;6024603;23;20162;-82
2021/08/31 05:44:26;;;;;;;32.97;26.57;;;;;;;11.84;100.00;96035.56;6021678;23;20169;-81
2021/08/31 05:46:52;;;;;;;70.27;29.13;;;;;;;11.67;100.00;96036.28;6023723;23;20169;-80
2021/08/31 05:49:17;;;;;;;32.27;25.10;;;;;;;11.83;100.00;96044.31;6022147;23;20188;-82
2021/08/31 05:51:42;;;;;;;36.53;25.83;;;;;;;11.81;100.00;96050.63;6022680;23;20186;-80
2021/08/31 05:54:07;;;;;;;36.40;26.77;;;;;;;11.81;100.00;96054.03;6021386;23;20230;-80
2021/08/31 05:56:33;;;;;;;37.93;26.10;;;;;;;11.81;100.00;96053.22;6022916;23;20209;-82
2021/08/31 05:58:58;;;;;;;34.63;26.20;;;;;;;11.84;100.00;96051.19;6025116;23;20224;-81
2021/08/31 06:01:23;;;;;;;33.33;24.70;;;;;;;11.84;100.00;96056.38;6023994;23;20225;-80
2021/08/31 06:03:49;;;;;;;35.43;24.50;;;;;;;11.76;100.00;96058.03;6027273;23;20221;-82
2021/08/31 06:06:15;;;;;;;29.67;23.23;;;;;;;11.58;100.00;96058.75;6029920;23;20232;-81
2021/08/31 06:08:41;;;;;;;34.47;24.20;;;;;;;11.53;100.00;96063.56;6055862;23;20181;-82
2021/08/31 06:11:09;;;;;;;31.23;24.90;;;;;;;11.63;100.00;96066.94;6028700;23;20172;-80
2021/08/31 06:13:34;;;;;;;34.43;24.67;;;;;;;11.73;100.00;96071.28;6052791;23;20192;-82
2021/08/31 06:15:59;;;;;;;28.13;22.93;;;;;;;11.79;100.00;96066.34;6122994;23;20533;-80
2021/08/31 06:18:25;;;;;;;30.70;23.17;;;;;;;11.69;100.00;96077.75;6168541;23;20514;-82
2021/08/31 06:20:51;;;;;;;36.07;23.90;;;;;;;11.62;100.00;96073.13;6142464;23;20166;-81
2021/08/31 06:23:16;;;;;;;28.37;22.07;;;;;;;11.59;100.00;96075.19;6143606;23;20155;-81
2021/08/31 06:25:42;;;;;;;34.93;23.57;;;;;;;11.63;100.00;96081.72;6170309;23;20182;-81
2021/08/31 06:28:07;;;;;;;30.97;23.27;;;;;;;11.61;100.00;96081.06;6147664;23;20233;-81
2021/08/31 06:30:32;;;;;;;29.63;23.47;;;;;;;11.63;100.00;96079.94;6148356;23;20205;-81
2021/08/31 06:32:58;;;;;;;27.77;22.10;;;;;;;11.70;100.00;96080.22;6194000;23;20265;-81
2021/08/31 06:35:23;;;;;;;26.43;22.00;;;;;;;11.59;100.00;96073.41;6167964;23;20154;-83
2021/08/31 06:37:49;;;;;;;30.50;22.10;;;;;;;11.67;100.00;96079.69;6166981;23;20182;-79
2021/08/31 06:40:14;;;;;;;28.17;22.13;;;;;;;11.71;100.00;96084.44;6140116;23;20445;-81
2021/08/31 06:42:39;;;;;;;25.70;20.87;;;;;;;11.85;100.00;96084.03;6169653;23;20154;-81
2021/08/31 06:45:05;;;;;;;26.77;21.20;;;;;;;11.95;100.00;96089.22;6168777;23;20150;-81
2021/08/31 06:47:31;;;;;;;30.77;20.33;;;;;;;12.09;100.00;96093.94;6173100;23;20218;-80
2021/08/31 06:49:56;;;;;;;30.20;20.67;;;;;;;12.20;99.83;96090.34;6145075;23;20170;-82
2021/08/31 06:52:21;;;;;;;25.27;19.23;;;;;;;12.08;98.88;96081.06;6136580;23;20178;-81
2021/08/31 06:54:46;;;;;;;28.77;19.70;;;;;;;12.06;98.49;96085.59;6135307;23;20173;-80
2021/08/31 06:57:12;;;;;;;23.00;20.37;;;;;;;12.09;98.89;96086.13;6134592;23;20158;-82
2021/08/31 06:59:37;;;;;;;23.63;19.43;;;;;;;12.05;98.65;96092.59;6133706;23;20632;-78
2021/08/31 07:02:02;;;;;;;26.00;19.23;;;;;;;12.04;98.83;96092.75;6157462;23;20193;-79
2021/08/31 07:04:28;;;;;;;25.37;19.67;;;;;;;11.94;98.72;96092.78;6136253;23;20174;-82
2021/08/31 07:06:53;;;;;;;25.63;20.73;;;;;;;11.94;99.33;96097.97;6136244;23;20181;-80
2021/08/31 07:09:20;;;;;;;22.10;18.60;;;;;;;11.80;99.30;96098.44;6140597;23;20693;-80
2021/08/31 07:11:45;;;;;;;24.67;19.50;;;;;;;11.82;99.33;96088.69;6163432;23;20150;-80
2021/08/31 07:14:11;;;;;;;22.23;18.30;;;;;;;12.12;98.89;96095.44;6138948;23;20198;-80
2021/08/31 07:16:36;;;;;;;20.90;18.47;;;;;;;12.23;97.80;96094.44;6138776;23;20257;-80
2021/08/31 07:19:02;;;;;;;24.57;18.63;;;;;;;12.55;96.87;96092.22;6164391;23;20177;-81
2021/08/31 07:21:27;;;;;;;21.33;17.00;;;;;;;12.75;95.06;96095.50;6162250;23;20151;-80
2021/08/31 07:23:53;;;;;;;18.07;15.97;;;;;;;12.98;94.62;96096.69;6140838;23;20186;-82
2021/08/31 07:26:18;;;;;;;17.30;14.90;;;;;;;13.06;93.70;96090.75;6189306;23;20585;-82
2021/08/31 07:28:44;;;;;;;19.87;15.70;;;;;;;13.25;92.93;96101.06;6163090;23;20273;-81
2021/08/31 07:31:09;;;;;;;16.30;14.70;;;;;;;13.59;91.29;96095.91;6162768;23;20229;-80
2021/08/31 07:33:35;;;;;;;16.80;15.10;;;;;;;13.62;89.26;96101.81;6138008;23;20179;-81
2021/08/31 07:36:00;;;;;;;15.03;13.53;;;;;;;13.78;89.14;96100.16;6138883;23;20158;-80
2021/08/31 07:38:25;;;;;;;17.87;13.00;;;;;;;13.75;87.87;96108.25;6163944;23;20179;-81
2021/08/31 07:40:51;;;;;;;12.87;11.00;;;;;;;13.69;86.03;96110.66;6139768;23;20185;-82
2021/08/31 07:43:16;;;;;;;12.57;11.27;;;;;;;13.87;85.88;96108.84;6137837;23;20698;-82
2021/08/31 07:45:41;;;;;;;13.63;11.77;;;;;;;13.59;87.15;96118.59;6135435;23;20163;-82
2021/08/31 07:48:07;;;;;;;13.43;10.93;;;;;;;13.50;87.09;96115.09;6157036;23;20180;-79
2021/08/31 07:50:32;;;;;;;13.07;10.93;;;;;;;13.43;87.38;96124.53;6132455;23;20181;-81
2021/08/31 07:52:57;;;;;;;12.50;11.20;;;;;;;13.21;88.55;96124.97;6156582;23;20179;-81
2021/08/31 07:55:23;;;;;;;15.03;12.77;;;;;;;12.91;90.57;96129.56;6159285;23;20458;-82
2021/08/31 07:57:48;;;;;;;15.33;12.67;;;;;;;12.86;91.03;96125.75;6163998;23;20178;-81
2021/08/31 08:00:16;;;;;;;17.70;13.90;;;;;;;12.76;91.95;96137.06;6166138;23;20155;-82
2021/08/31 08:02:42;;;;;;;14.90;13.37;;;;;;;12.82;91.90;96148.69;6144616;23;20174;-80
2021/08/31 08:05:08;;;;;;;15.60;12.60;;;;;;;12.84;91.18;96140.72;6163455;23;20158;-79
2021/08/31 08:07:33;;;;;;;16.13;13.30;;;;;;;12.67;92.71;96148.34;6180740;23;20163;-80
2021/08/31 08:09:59;;;;;;;17.23;13.60;;;;;;;12.72;92.59;96148.75;6166114;23;20286;-82
2021/08/31 08:12:24;;;;;;;15.83;14.20;;;;;;;12.82;93.35;96155.69;6166997;23;20178;-83
2021/08/31 08:14:50;;;;;;;21.03;14.70;;;;;;;13.00;91.97;96156.53;6166234;23;20143;-83
2021/08/31 08:17:20;;;;;;;17.73;15.80;;;;;;;12.94;91.69;96157.94;6167172;23;20158;-81
2021/08/31 08:19:45;;;;;;;18.70;13.97;;;;;;;12.63;92.78;96154.84;6140745;23;20518;-81
2021/08/31 08:22:11;;;;;;;16.20;14.10;;;;;;;12.74;92.87;96152.03;6142143;23;20151;-82
2021/08/31 08:24:37;;;;;;;17.00;14.03;;;;;;;12.95;92.33;96161.34;6166621;23;20159;-82
2021/08/31 08:27:02;;;;;;;16.13;14.43;;;;;;;13.24;90.86;96159.38;6141087;23;20204;-83
2021/08/31 08:29:28;;;;;;;14.27;12.63;;;;;;;13.45;89.52;96161.72;6164993;23;20628;-82
2021/08/31 08:31:55;;;;;;;14.93;13.17;;;;;;;13.67;88.34;96162.19;6138212;23;20217;-83
2021/08/31 08:34:21;;;;;;;13.40;11.60;;;;;;;13.83;86.85;96159.72;6141533;23;20158;-83
2021/08/31 08:36:46;;;;;;;13.30;11.33;;;;;;;14.11;86.37;96160.38;6140674;23;20601;-82
2021/08/31 08:39:11;;;;;;;12.83;11.20;;;;;;;13.93;86.44;96163.03;6166008;23;20201;-81
2021/08/31 08:41:37;;;;;;;15.37;11.60;;;;;;;14.29;85.99;96168.16;6139213;23;20234;-83
2021/08/31 08:44:02;;;;;;;13.67;12.20;;;;;;;14.22;85.19;96169.72;6165813;23;20222;-82
2021/08/31 08:46:28;;;;;;;14.77;12.00;;;;;;;14.38;85.14;96167.22;6139911;23;20162;-81
2021/08/31 08:48:55;;;;;;;13.97;10.97;;;;;;;14.38;85.28;96173.25;6165454;23;20188;-81
2021/08/31 08:51:20;;;;;;;12.30;11.00;;;;;;;14.37;85.36;96169.00;6172923;23;20212;-81
2021/08/31 08:53:46;;;;;;;11.23;9.53;;;;;;;14.16;83.62;96176.41;6138133;23;20182;-77
2021/08/31 08:56:11;;;;;;;11.17;10.07;;;;;;;14.00;84.52;96184.13;6160995;23;20158;-82
2021/08/31 08:58:37;;;;;;;12.10;10.63;;;;;;;14.01;84.75;96185.78;6137510;23;20185;-81
2021/08/31 09:01:10;;;;;;;16.27;11.03;;;;;;;13.81;85.57;96183.38;6166361;23;20159;-81
2021/08/31 09:03:38;;;;;;;14.57;11.00;;;;;;;13.83;85.62;96185.81;6166733;23;20213;-82
2021/08/31 09:06:18;;;;;;;12.03;10.83;;;;;;;13.81;86.04;96185.97;6141648;23;20158;-82
2021/08/31 09:08:53;;;;;;;11.43;10.23;;;;;;;13.66;86.51;96192.69;6141861;23;20179;-83
2021/08/31 09:11:27;;;;;;;12.90;11.23;;;;;;;13.69;86.85;96196.78;6167854;23;20604;-81
2021/08/31 09:14:27;;;;;;;14.67;11.87;;;;;;;13.77;86.68;96196.84;6169896;23;20237;-80
2021/08/31 09:16:57;;;;;;;15.63;13.10;;;;;;;13.56;87.82;96199.78;6167742;23;20154;-81
2021/08/31 09:19:36;;;;;;;14.93;11.73;;;;;;;13.89;87.09;96187.81;6168039;23;20624;-81
2021/08/31 09:22:15;;;;;;;13.00;11.47;;;;;;;14.23;86.68;96198.34;6137728;23;20257;-81
2021/08/31 09:24:55;;;;;;;13.83;12.03;;;;;;;14.48;84.72;96206.31;6159789;23;20556;-81
2021/08/31 09:27:45;;;;;;;13.43;12.03;;;;;;;14.58;83.47;96210.47;6134941;23;20161;-82
2021/08/31 09:30:17;;;;;;;13.80;10.47;;;;;;;14.57;83.58;96198.38;6135006;23;20531;-81
2021/08/31 09:33:01;;;;;;;13.33;10.63;;;;;;;14.39;83.86;96208.03;6158756;23;20280;-81
2021/08/31 09:35:30;;;;;;;11.90;10.17;;;;;;;14.36;84.56;96208.38;6164744;23;20571;-82
2021/08/31 09:38:01;;;;;;;12.87;10.37;;;;;;;14.31;84.51;96210.59;6141904;23;20333;-81
2021/08/31 09:40:30;;;;;;;14.43;11.30;;;;;;;14.14;84.42;96207.09;6165967;23;20589;-80
2021/08/31 09:43:04;;;;;;;15.20;11.10;;;;;;;14.34;84.67;96213.75;6136323;23;20175;-81
2021/08/31 09:45:36;;;;;;;13.60;10.67;;;;;;;14.58;83.31;96212.28;6134087;23;20164;-81
2021/08/31 09:48:04;;;;;;;12.00;10.27;;;;;;;14.57;83.13;96216.66;6134356;23;20605;-81
2021/08/31 09:50:38;;;;;;;12.60;11.00;;;;;;;14.62;83.07;96205.75;6158588;23;20188;-78
2021/08/31 09:53:14;;;;;;;14.23;10.73;;;;;;;14.40;83.24;96215.75;6133986;23;20192;-79
2021/08/31 09:55:41;;;;;;;13.87;10.43;;;;;;;13.96;84.95;96212.38;6185221;23;20150;-80
2021/08/31 09:58:13;;;;;;;13.27;11.17;;;;;;;14.02;85.53;96210.91;6157618;23;20174;-81
2021/08/31 10:00:40;;;;;;;12.00;10.03;;;;;;;13.66;87.09;96215.38;6159960;23;20193;-79
2021/08/31 10:03:06;;;;;;;14.47;11.23;;;;;;;13.63;87.66;96226.13;6185702;23;20209;-79
2021/08/31 10:05:33;;;;;;;12.33;11.03;;;;;;;13.42;88.26;96223.78;6145840;23;20166;-81
2021/08/31 10:07:59;;;;;;;14.63;11.00;;;;;;;13.57;87.88;96227.53;6164321;23;20196;-81
2021/08/31 10:10:25;;;;;;;14.13;11.43;;;;;;;13.52;88.65;96229.78;6165036;23;20242;-80
2021/08/31 10:12:54;;;;;;;14.90;13.33;;;;;;;13.39;89.34;96224.91;6138751;23;20609;-81
2021/08/31 10:15:21;;;;;;;15.07;12.97;;;;;;;13.41;89.26;96228.19;6164555;23;20158;-80
2021/08/31 10:17:49;;;;;;;16.10;12.10;;;;;;;13.29;90.18;96224.16;6140474;23;20262;-81
2021/08/31 10:20:18;;;;;;;16.93;13.40;;;;;;;13.33;90.32;96225.50;6139571;23;20201;-81
2021/08/31 10:22:43;;;;;;;15.47;12.87;;;;;;;13.29;90.26;96227.59;6139404;23;20226;-81
2021/08/31 10:25:09;;;;;;;16.90;13.13;;;;;;;13.27;90.55;96231.31;6140076;23;20162;-78
2021/08/31 10:27:42;;;;;;;15.13;12.97;;;;;;;13.36;89.10;96229.63;6164660;23;20166;-81
2021/08/31 10:30:20;;;;;;;13.40;11.83;;;;;;;13.54;87.88;96231.25;6164221;23;20155;-82
2021/08/31 10:32:49;;;;;;;12.50;10.70;;;;;;;13.53;88.07;96227.00;6163661;23;20210;-81
2021/08/31 10:35:35;;;;;;;14.53;10.67;;;;;;;14.13;85.80;96219.34;6186454;23;20162;-81
2021/08/31 10:38:03;;;;;;;12.30;10.03;;;;;;;14.43;85.00;96225.06;6165599;23;20185;-83
2021/08/31 10:40:45;;;;;;;11.67;10.47;;;;;;;14.75;82.59;96229.66;6164909;23;20249;-80
2021/08/31 10:43:21;;;;;;;10.23;9.03;;;;;;;14.80;80.75;96229.19;6161105;23;20151;-80
2021/08/31 10:45:54;;;;;;;10.63;9.37;;;;;;;15.16;81.07;96228.00;6159331;23;20146;-81
2021/08/31 10:48:22;;;;;;;9.37;8.07;;;;;;;15.29;79.51;96217.94;6158875;23;20170;-81
2021/08/31 10:51:14;;;;;;;10.33;9.33;;;;;;;15.54;77.12;96221.38;6185454;23;20163;-81
2021/08/31 10:53:44;;;;;;;11.20;8.87;;;;;;;15.66;76.56;96223.75;6157408;23;20189;-81
2021/08/31 10:56:25;;;;;;;9.65;7.85;;;;;;;15.89;75.90;96229.94;6157246;23;20151;-81
2021/08/31 10:58:52;;;;;;;10.53;9.13;;;;;;;15.59;74.56;96232.19;6157008;23;20252;-82
2021/08/31 11:01:25;;;;;;;9.25;8.27;;;;;;;15.57;75.04;96226.31;6156523;23;20150;-80
2021/08/31 11:03:52;;;;;;;9.13;8.18;;;;;;;15.90;74.73;96230.75;6133208;23;20146;-81
2021/08/31 11:06:33;;;;;;;12.33;8.00;;;;;;;16.32;74.65;96235.81;6157451;23;20162;-80
2021/08/31 11:09:10;;;;;;;7.93;7.22;;;;;;;16.50;74.24;96233.81;6132858;23;20182;-81
2021/08/31 11:11:36;;;;;;;10.50;8.18;;;;;;;16.60;72.56;96234.44;6183388;23;20157;-82
2021/08/31 11:14:02;;;;;;;8.07;6.43;;;;;;;16.66;71.01;96236.41;6157636;23;20182;-82
2021/08/31 11:16:30;;;;;;;7.88;7.07;;;;;;;16.76;70.33;96238.03;6132745;23;20325;-79
2021/08/31 11:18:55;;;;;;;8.05;6.63;;;;;;;16.78;70.65;96238.69;6133306;23;20523;-80
2021/08/31 11:21:21;;;;;;;7.75;6.63;;;;;;;17.15;69.92;96238.88;6182297;23;20155;-83
2021/08/31 11:23:46;;;;;;;7.22;6.50;;;;;;;17.19;69.21;96244.59;6133215;23;20490;-81